Airfield :
LOGIN :

Register | Disclaimer

   EN    FR    IT 

 










Legend :    VFR   Marginal VFR   IFR   Intensive IFR   Very Intensive IFR
Visi :
Ceiling :
>= 8 km
>= 3000ft
5 to 8 km
1000 to 3000 ft
1500m to 5 km
500 to 1000 ft
800 to 1500m
200 to 500 ft
< 800m
< 200 ft
Symbols :   Thunderstorms  Fog  Heavy snow  Heavy precipitations  Wind > 20 kt
SIGMETs :     Misc.  Thunderstorms  Icing  Turbulence  Mountain Waves  Volcanic Ashes






- Airport Elevation : 468 ft
- IATA code : GRO


LEGE - Girona Costa Brava

CURRENT METAR :
  • 052100Z 27002KT 9999 FEW025 20/16 Q1015

EXPIRED METARs :
  • 052030Z 26003KT CAVOK 21/16 Q1015
  • 052000Z 21004KT CAVOK 22/16 Q1015
  • 051930Z 20005KT 9999 FEW025 22/16 Q1015
  • 051900Z 20006KT 170V230 9999 FEW025 23/16 Q1014
  • 051830Z 20008KT 9999 FEW020 24/16 Q1014

TAF TAF LEGE
Valid from the 05 at 18:00 until the 06 at 18:00 UTC


051700Z 0518/0618 16010KT 9999 FEW030 TX33/0613Z TN18/0606Z
BECMG 0520/0522 VRB04KT
PROB30
TEMPO 0601/0606 4000 BR BKN005
BECMG 0609/0611 18010KT



MET'MAP, your aeronautical weather chart ! - Copyright ORBIFLY December 2007 - Disclaimer

ORBIFLY MET'MAP TEAM :

Programming & Development : Alexandra Zaïnal
Concept & original design : Baudouin d'Aumeries
Assistance for programming : Marc-Olivier Méhu
Technical & hardware support : Manuel Goepfert

Contact : metmap@orbifly.com




SOURCES & CREDITS :

   NOAA